createdAt,value
2022-08-18T00:00:50.924Z,41.81
2022-08-18T00:02:05.389Z,41.96
2022-08-18T00:03:27.130Z,42.78
2022-08-18T00:04:35.902Z,42.82
2022-08-18T00:05:39.045Z,42.69
2022-08-18T00:06:42.423Z,42.66
2022-08-18T00:07:49.926Z,42.96
2022-08-18T00:08:53.010Z,42.76
2022-08-18T00:09:55.846Z,43.14
2022-08-18T00:10:58.678Z,42.96
2022-08-18T00:12:04.158Z,42.99
2022-08-18T00:13:06.348Z,43.21
2022-08-18T00:14:14.520Z,43.12
2022-08-18T00:15:25.623Z,43.05
2022-08-18T00:16:28.784Z,43.32
2022-08-18T00:17:32.413Z,43.55
2022-08-18T00:18:35.701Z,43.34
2022-08-18T00:19:46.167Z,43.11
2022-08-18T00:20:50.176Z,43.12
2022-08-18T00:21:52.482Z,43.20
2022-08-18T00:22:56.685Z,43.63
2022-08-18T00:23:58.919Z,43.47
2022-08-18T00:25:04.396Z,43.35
2022-08-18T00:26:06.660Z,43.35
2022-08-18T00:27:10.660Z,43.39
2022-08-18T00:28:14.162Z,43.39
2022-08-18T00:29:16.361Z,43.44
2022-08-18T00:30:23.616Z,43.50
2022-08-18T00:31:26.106Z,43.55
2022-08-18T00:32:36.094Z,43.48
2022-08-18T00:33:38.444Z,43.64
2022-08-18T00:34:40.896Z,43.58
2022-08-18T00:35:43.106Z,43.65
2022-08-18T00:36:45.356Z,43.69
2022-08-18T00:37:49.218Z,43.86
2022-08-18T00:38:52.058Z,43.99
2022-08-18T00:39:54.492Z,44.04
2022-08-18T00:40:56.931Z,44.08
2022-08-18T00:42:00.479Z,44.12
2022-08-18T00:43:04.965Z,44.39
2022-08-18T00:44:07.305Z,44.44
2022-08-18T00:45:14.486Z,44.51
2022-08-18T00:46:26.545Z,44.23
2022-08-18T00:47:32.988Z,44.62
2022-08-18T00:48:49.048Z,44.53
2022-08-18T00:49:53.498Z,44.81
2022-08-18T00:51:02.741Z,44.63
2022-08-18T00:52:05.660Z,44.80
2022-08-18T00:53:29.013Z,44.31
2022-08-18T00:54:33.030Z,44.88
2022-08-18T00:55:35.901Z,44.81
2022-08-18T00:56:44.360Z,44.67
2022-08-18T00:57:48.444Z,44.66
2022-08-18T00:58:58.275Z,44.79
2022-08-18T01:00:13.214Z,45.13
2022-08-18T01:01:19.551Z,44.71
2022-08-18T01:02:34.130Z,44.70
2022-08-18T01:03:40.142Z,45.09
2022-08-18T01:04:50.126Z,44.73
2022-08-18T01:06:11.902Z,44.89
2022-08-18T01:07:22.475Z,44.77
2022-08-18T01:08:29.059Z,44.61
2022-08-18T01:09:31.794Z,44.95
2022-08-18T01:10:34.398Z,45.10
2022-08-18T01:11:38.708Z,44.99
2022-08-18T01:12:45.901Z,45.07
2022-08-18T01:13:49.044Z,45.08
2022-08-18T01:14:51.303Z,45.28
2022-08-18T01:15:53.474Z,44.90
2022-08-18T01:17:15.155Z,44.92
2022-08-18T01:18:36.150Z,44.98
2022-08-18T01:19:57.493Z,45.01
2022-08-18T01:21:47.747Z,44.77
2022-08-18T01:23:12.069Z,44.36
2022-08-18T01:24:17.481Z,45.04
2022-08-18T01:25:42.502Z,45.06
2022-08-18T01:26:50.172Z,44.94
2022-08-18T01:27:52.699Z,44.86
2022-08-18T01:28:54.979Z,45.07
2022-08-18T01:29:57.659Z,45.09
2022-08-18T01:31:01.111Z,45.09
2022-08-18T01:32:03.733Z,45.25
2022-08-18T01:33:10.677Z,45.23
2022-08-18T01:34:13.141Z,45.38
2022-08-18T01:35:18.195Z,45.23
2022-08-18T01:36:22.087Z,45.18
2022-08-18T01:37:24.740Z,45.27
2022-08-18T01:38:27.496Z,45.00
2022-08-18T01:41:12.876Z,45.35
2022-08-18T01:41:27.426Z,45.24
2022-08-18T01:42:18.271Z,45.15
2022-08-18T01:43:21.320Z,45.04
2022-08-18T01:44:23.542Z,45.58
2022-08-18T01:45:26.340Z,45.38
2022-08-18T01:46:30.680Z,45.61
2022-08-18T01:47:47.699Z,45.81
2022-08-18T01:48:51.413Z,45.83
2022-08-18T01:49:53.643Z,45.72
2022-08-18T01:50:57.035Z,45.76
2022-08-18T01:51:59.218Z,46.00
2022-08-18T01:53:04.541Z,46.04
2022-08-18T01:54:06.786Z,46.35
2022-08-18T01:55:09.789Z,46.33
2022-08-18T01:56:13.232Z,46.35
2022-08-18T01:57:16.746Z,46.72
2022-08-18T01:58:18.953Z,46.78
2022-08-18T01:59:21.174Z,46.75
2022-08-18T02:00:25.104Z,47.05
2022-08-18T02:01:36.206Z,47.38
2022-08-18T02:02:40.024Z,47.49
2022-08-18T02:03:49.500Z,47.65
2022-08-18T02:04:55.215Z,47.52
2022-08-18T02:06:04.320Z,47.69
2022-08-18T02:07:11.525Z,47.86
2022-08-18T02:08:15.493Z,47.91
2022-08-18T02:09:24.141Z,47.82
2022-08-18T02:10:27.704Z,48.07
2022-08-18T02:11:29.876Z,47.92
2022-08-18T02:12:35.346Z,48.19
2022-08-18T02:13:37.600Z,47.84
2022-08-18T02:14:48.052Z,47.87
2022-08-18T02:15:50.352Z,48.18
2022-08-18T02:16:52.549Z,48.10
2022-08-18T02:17:54.714Z,48.05
2022-08-18T02:18:56.926Z,48.09
2022-08-18T02:20:01.510Z,47.96
2022-08-18T02:21:13.946Z,47.82
2022-08-18T02:22:21.948Z,47.89
2022-08-18T02:23:25.036Z,47.75
2022-08-18T02:24:27.258Z,47.91
2022-08-18T02:25:29.464Z,47.72
2022-08-18T02:26:34.738Z,47.30
2022-08-18T02:27:37.271Z,47.04
2022-08-18T02:28:40.079Z,47.15
2022-08-18T02:29:42.993Z,47.06
2022-08-18T02:30:45.239Z,46.96
2022-08-18T02:31:47.575Z,47.34
2022-08-18T02:32:49.929Z,46.92
2022-08-18T02:33:52.881Z,47.24
2022-08-18T02:34:55.269Z,47.16
2022-08-18T02:35:57.508Z,46.92
2022-08-18T02:37:01.133Z,47.33
2022-08-18T02:38:05.494Z,47.03
2022-08-18T02:39:09.204Z,47.06
2022-08-18T02:40:15.221Z,47.42
2022-08-18T02:41:18.155Z,47.29
2022-08-18T02:42:20.708Z,47.17
2022-08-18T02:43:23.463Z,47.34
2022-08-18T02:44:25.691Z,47.28
2022-08-18T02:45:27.906Z,47.29
2022-08-18T02:46:31.344Z,47.47
2022-08-18T02:47:34.184Z,47.39
2022-08-18T02:48:36.361Z,47.45
2022-08-18T02:49:41.585Z,47.52
2022-08-18T02:50:47.270Z,47.16
2022-08-18T02:51:51.377Z,46.98
2022-08-18T02:52:54.707Z,47.37
2022-08-18T02:54:00.382Z,47.26
2022-08-18T02:55:03.425Z,47.05
2022-08-18T02:56:40.142Z,46.91
2022-08-18T02:57:47.575Z,47.47
2022-08-18T02:58:53.655Z,47.13
2022-08-18T02:59:56.349Z,47.30
2022-08-18T03:01:05.030Z,47.34
2022-08-18T03:02:09.290Z,47.51
2022-08-18T03:03:12.486Z,47.29
2022-08-18T03:04:17.710Z,47.66
2022-08-18T03:05:23.293Z,47.47
2022-08-18T03:06:27.027Z,47.20
2022-08-18T03:07:32.217Z,47.50
2022-08-18T03:08:37.401Z,47.50
2022-08-18T03:09:39.671Z,47.52
2022-08-18T03:10:41.918Z,47.75
2022-08-18T03:11:44.861Z,47.66
2022-08-18T03:12:51.418Z,47.81
2022-08-18T03:13:55.236Z,47.78
2022-08-18T03:14:57.489Z,47.67
2022-08-18T03:16:00.050Z,47.76
2022-08-18T03:17:05.813Z,47.43
2022-08-18T03:18:08.004Z,47.58
2022-08-18T03:19:10.208Z,47.28
2022-08-18T03:20:12.808Z,47.56
2022-08-18T03:21:18.452Z,47.75
2022-08-18T03:22:28.122Z,47.39
2022-08-18T03:23:34.058Z,47.68
2022-08-18T03:24:36.545Z,47.47
2022-08-18T03:25:47.391Z,47.42
2022-08-18T03:26:51.850Z,47.54
2022-08-18T03:27:54.132Z,47.77
2022-08-18T03:28:57.777Z,47.88
2022-08-18T03:30:00.515Z,47.74
2022-08-18T03:31:02.819Z,47.86
2022-08-18T03:32:07.290Z,48.01
2022-08-18T03:33:17.498Z,47.91
2022-08-18T03:34:21.133Z,47.89
2022-08-18T03:35:23.306Z,47.67
2022-08-18T03:36:28.827Z,47.90
2022-08-18T03:37:31.058Z,47.68
2022-08-18T03:38:36.226Z,48.08
2022-08-18T03:39:38.531Z,47.65
2022-08-18T03:40:41.024Z,47.83
2022-08-18T03:41:58.653Z,47.95
2022-08-18T03:43:49.566Z,47.84
2022-08-18T03:44:34.376Z,47.66
2022-08-18T03:45:36.599Z,47.80
2022-08-18T03:46:41.190Z,47.66
2022-08-18T03:47:46.095Z,47.67
2022-08-18T03:48:49.472Z,47.94
2022-08-18T03:49:51.672Z,47.57
2022-08-18T03:50:53.858Z,47.80
2022-08-18T03:51:56.495Z,47.88
2022-08-18T03:52:59.766Z,47.61
2022-08-18T03:54:04.118Z,47.84
2022-08-18T03:55:06.603Z,47.67
2022-08-18T03:56:16.055Z,47.85
2022-08-18T03:57:19.995Z,47.75
2022-08-18T03:58:22.171Z,47.66
2022-08-18T03:59:26.285Z,47.56
2022-08-18T04:00:33.884Z,47.41
2022-08-18T04:01:41.965Z,47.54
2022-08-18T04:02:44.235Z,47.88
2022-08-18T04:03:49.945Z,47.71
2022-08-18T04:04:52.844Z,47.94
2022-08-18T04:05:55.061Z,47.91
2022-08-18T04:07:00.231Z,47.74
2022-08-18T04:08:05.089Z,48.02
2022-08-18T04:09:13.543Z,47.68
2022-08-18T04:10:19.407Z,48.17
2022-08-18T04:11:23.018Z,48.06
2022-08-18T04:12:25.186Z,47.91
2022-08-18T04:13:27.371Z,47.82
2022-08-18T04:14:33.388Z,48.16
2022-08-18T04:15:37.532Z,48.04
2022-08-18T04:16:40.900Z,48.06
2022-08-18T04:18:03.080Z,48.16
2022-08-18T04:19:05.831Z,47.85
2022-08-18T04:20:08.496Z,48.01
2022-08-18T04:21:13.752Z,47.93
2022-08-18T04:22:19.309Z,48.27
2022-08-18T04:23:21.552Z,48.47
2022-08-18T04:24:30.917Z,48.24
2022-08-18T04:25:34.112Z,48.44
2022-08-18T04:26:40.160Z,48.42
2022-08-18T04:27:43.884Z,48.82
2022-08-18T04:28:46.295Z,48.74
2022-08-18T04:29:48.598Z,48.81
2022-08-18T04:30:50.978Z,48.79
2022-08-18T04:31:53.290Z,48.74
2022-08-18T04:32:55.448Z,48.75
2022-08-18T04:33:59.604Z,48.85
2022-08-18T04:35:02.787Z,48.99
2022-08-18T04:36:12.477Z,49.01
2022-08-18T04:37:22.099Z,48.82
2022-08-18T04:38:24.497Z,48.85
2022-08-18T04:39:26.844Z,48.86
2022-08-18T04:40:29.693Z,48.89
2022-08-18T04:41:32.090Z,48.94
2022-08-18T04:42:34.281Z,48.72
2022-08-18T04:43:42.406Z,48.69
2022-08-18T04:44:44.598Z,48.79
2022-08-18T04:45:47.616Z,48.68
2022-08-18T04:46:53.650Z,48.82
2022-08-18T04:47:58.676Z,48.69
2022-08-18T04:49:00.931Z,48.70
2022-08-18T04:50:03.996Z,48.84
2022-08-18T04:51:10.584Z,48.71
2022-08-18T04:52:40.253Z,48.67
2022-08-18T04:53:47.791Z,48.73
2022-08-18T04:54:50.233Z,48.67
2022-08-18T04:55:55.618Z,48.72
2022-08-18T04:56:57.946Z,48.36
2022-08-18T04:58:00.927Z,48.66
2022-08-18T04:59:08.289Z,48.62
2022-08-18T05:00:13.944Z,48.46
2022-08-18T05:01:17.828Z,48.55
2022-08-18T05:02:21.410Z,48.63
2022-08-18T05:03:26.812Z,48.29
2022-08-18T05:04:30.387Z,48.43
2022-08-18T05:05:32.554Z,48.29
2022-08-18T05:06:36.162Z,48.21
2022-08-18T05:07:45.002Z,48.38
2022-08-18T05:08:48.618Z,48.23
2022-08-18T05:09:54.216Z,48.14
2022-08-18T05:11:03.519Z,47.92
2022-08-18T05:12:07.103Z,47.99
2022-08-18T05:13:09.969Z,47.71
2022-08-18T05:14:12.274Z,47.54
2022-08-18T05:15:14.471Z,47.57
2022-08-18T05:16:27.821Z,47.29
2022-08-18T05:17:31.173Z,47.53
2022-08-18T05:18:39.379Z,47.13
2022-08-18T05:19:47.111Z,47.18
2022-08-18T05:20:53.264Z,46.87
2022-08-18T05:21:59.943Z,46.64
2022-08-18T05:23:03.780Z,46.70
2022-08-18T05:24:06.197Z,46.53
2022-08-18T05:25:10.606Z,46.30
2022-08-18T05:26:16.980Z,46.42
2022-08-18T05:27:19.198Z,46.50
2022-08-18T05:28:21.436Z,46.06
2022-08-18T05:29:23.706Z,45.97
2022-08-18T05:30:26.115Z,46.06
2022-08-18T05:31:29.393Z,45.67
2022-08-18T05:32:47.421Z,45.92
2022-08-18T05:33:52.573Z,45.83
2022-08-18T05:34:54.816Z,45.37
2022-08-18T05:36:06.744Z,45.54
2022-08-18T05:37:28.071Z,45.19
2022-08-18T05:38:59.004Z,45.29
2022-08-18T05:40:07.576Z,45.22
2022-08-18T05:41:21.562Z,45.12
2022-08-18T05:42:26.440Z,44.89
2022-08-18T05:43:28.629Z,44.83
2022-08-18T05:44:34.590Z,44.53
2022-08-18T05:45:39.118Z,44.38
2022-08-18T05:46:50.595Z,44.28
2022-08-18T05:48:02.120Z,44.17
2022-08-18T05:49:04.988Z,44.03
2022-08-18T05:50:10.997Z,44.00
2022-08-18T05:51:21.091Z,44.20
2022-08-18T05:52:23.194Z,44.09
2022-08-18T05:53:45.459Z,44.14
2022-08-18T05:55:16.412Z,43.90
2022-08-18T05:56:46.569Z,43.59
2022-08-18T05:57:55.049Z,43.37
2022-08-18T05:58:59.705Z,43.21
2022-08-18T06:00:04.961Z,42.93
2022-08-18T06:01:27.439Z,43.08
2022-08-18T06:02:39.631Z,42.73
2022-08-18T06:03:48.933Z,42.94
2022-08-18T06:04:56.242Z,42.60
2022-08-18T06:06:09.142Z,42.46
2022-08-18T06:07:27.028Z,42.48
2022-08-18T06:08:50.556Z,42.30
2022-08-18T06:09:57.694Z,42.27
2022-08-18T06:10:59.873Z,42.15
2022-08-18T06:12:22.713Z,41.83
2022-08-18T06:13:24.958Z,41.59
2022-08-18T06:14:30.151Z,41.38
2022-08-18T06:15:44.421Z,41.41
2022-08-18T06:16:59.697Z,41.17
2022-08-18T06:18:18.437Z,41.01
2022-08-18T06:19:46.164Z,40.79
2022-08-18T06:21:14.332Z,40.76
2022-08-18T06:23:03.173Z,40.43
2022-08-18T06:24:25.069Z,39.81
2022-08-18T06:25:40.072Z,39.79
2022-08-18T06:27:03.008Z,39.97
2022-08-18T06:28:13.368Z,39.34
2022-08-18T06:29:50.428Z,39.44
2022-08-18T06:31:11.506Z,39.17
2022-08-18T06:32:45.313Z,39.11
2022-08-18T06:34:13.011Z,38.29
2022-08-18T06:35:39.936Z,38.04
2022-08-18T06:36:52.749Z,37.37
2022-08-18T06:38:36.851Z,36.81
2022-08-18T06:39:48.753Z,36.62
2022-08-18T06:41:03.306Z,36.69
2022-08-18T06:42:08.381Z,36.05
2022-08-18T06:43:17.377Z,36.19
2022-08-18T06:44:44.556Z,35.87
2022-08-18T06:45:52.270Z,34.93
2022-08-18T06:47:04.409Z,34.05
2022-08-18T06:48:30.842Z,34.32
2022-08-18T06:50:04.975Z,33.97
2022-08-18T06:51:08.661Z,33.75
2022-08-18T06:52:34.278Z,33.55
2022-08-18T06:53:58.546Z,33.37
2022-08-18T06:55:09.411Z,32.38
2022-08-18T06:56:34.170Z,32.69
2022-08-18T06:57:53.591Z,31.85
2022-08-18T06:59:32.429Z,32.18
2022-08-18T07:00:46.533Z,31.51
2022-08-18T07:02:02.147Z,31.11
2022-08-18T07:03:09.635Z,31.09
2022-08-18T07:04:33.932Z,31.56
2022-08-18T07:05:37.404Z,30.94
2022-08-18T07:06:41.345Z,30.73
2022-08-18T07:07:47.868Z,30.50
2022-08-18T07:08:52.978Z,30.29
2022-08-18T07:09:55.253Z,30.36
2022-08-18T07:11:12.618Z,30.16
2022-08-18T07:12:29.049Z,30.07
2022-08-18T07:13:41.763Z,29.53
2022-08-18T07:15:05.976Z,30.10
2022-08-18T07:16:40.547Z,29.88
2022-08-18T07:17:48.959Z,29.25
2022-08-18T07:18:52.622Z,28.74
2022-08-18T07:19:58.256Z,28.42
2022-08-18T07:21:03.661Z,28.07
2022-08-18T07:22:17.468Z,28.53
2022-08-18T07:23:40.052Z,28.63
2022-08-18T07:24:45.786Z,27.79
2022-08-18T07:25:53.035Z,27.76
2022-08-18T07:27:04.101Z,27.62
2022-08-18T07:28:07.396Z,27.58
2022-08-18T07:29:15.265Z,27.41
2022-08-18T07:30:20.297Z,27.63
2022-08-18T07:31:49.229Z,27.92
2022-08-18T07:33:21.363Z,28.08
2022-08-18T07:34:26.689Z,27.37
2022-08-18T07:35:39.294Z,27.32
2022-08-18T07:36:55.732Z,28.01
2022-08-18T07:39:50.576Z,27.80
2022-08-18T07:41:06.322Z,27.62
2022-08-18T07:42:54.082Z,27.41
2022-08-18T07:43:52.709Z,27.48
2022-08-18T07:45:03.305Z,27.91
2022-08-18T07:46:13.541Z,27.85
2022-08-18T07:47:35.639Z,28.34
2022-08-18T07:48:40.744Z,27.96
2022-08-18T07:50:13.461Z,27.87
2022-08-18T07:51:17.363Z,28.36
2022-08-18T07:52:36.657Z,28.51
2022-08-18T07:54:02.126Z,28.56
2022-08-18T07:55:31.512Z,28.80
2022-08-18T07:57:04.819Z,28.97
2022-08-18T07:58:47.831Z,29.30
2022-08-18T08:00:00.192Z,28.91
2022-08-18T08:01:10.924Z,29.04
2022-08-18T08:02:13.107Z,29.11
2022-08-18T08:04:03.736Z,29.27
2022-08-18T08:05:35.210Z,29.51
2022-08-18T08:07:23.797Z,29.71
2022-08-18T08:08:31.243Z,29.55
2022-08-18T08:09:52.095Z,29.44
2022-08-18T08:11:27.647Z,29.65
2022-08-18T08:12:48.303Z,29.35
2022-08-18T08:14:11.984Z,29.69
2022-08-18T08:15:28.203Z,29.88
2022-08-18T08:17:10.032Z,29.93
2022-08-18T08:18:40.657Z,30.08
2022-08-18T08:20:03.698Z,30.22
2022-08-18T08:21:18.542Z,30.23
2022-08-18T08:22:48.576Z,30.30
2022-08-18T08:24:10.355Z,30.04
2022-08-18T08:25:52.110Z,30.20
2022-08-18T08:27:00.371Z,30.41
2022-08-18T08:28:33.267Z,30.40
2022-08-18T08:29:53.732Z,30.65
2022-08-18T08:31:33.079Z,30.47
2022-08-18T08:32:35.190Z,30.48
2022-08-18T08:33:44.387Z,30.74
2022-08-18T08:34:57.221Z,30.76
2022-08-18T08:36:11.230Z,30.50
2022-08-18T08:37:19.569Z,30.27
2022-08-18T08:38:45.019Z,30.47
2022-08-18T08:39:58.033Z,30.52
2022-08-18T08:41:05.321Z,30.43
2022-08-18T08:42:31.713Z,30.67
2022-08-18T08:43:44.127Z,30.58
2022-08-18T08:45:02.583Z,30.72
2022-08-18T08:46:08.397Z,30.45
2022-08-18T08:47:35.992Z,30.71
2022-08-18T08:48:49.636Z,30.56
2022-08-18T08:50:00.917Z,30.30
2022-08-18T08:51:33.873Z,30.55
2022-08-18T08:52:49.383Z,30.39
2022-08-18T08:53:58.357Z,30.80
2022-08-18T08:55:07.501Z,30.77
2022-08-18T08:56:14.733Z,31.00
2022-08-18T08:57:18.961Z,31.14
2022-08-18T08:58:40.476Z,31.33
2022-08-18T08:59:47.512Z,31.42
2022-08-18T09:00:51.830Z,31.25
2022-08-18T09:02:06.263Z,31.21
2022-08-18T09:03:30.115Z,31.34
2022-08-18T09:04:53.281Z,30.84
2022-08-18T09:06:29.166Z,29.96
2022-08-18T09:07:56.053Z,30.23
2022-08-18T09:09:25.206Z,30.03
2022-08-18T09:11:04.214Z,30.35
2022-08-18T09:12:48.595Z,29.97
2022-08-18T09:13:59.681Z,29.92
2022-08-18T09:15:13.883Z,29.42
2022-08-18T09:16:52.076Z,29.48
2022-08-18T09:18:15.792Z,28.76
2022-08-18T09:20:55.135Z,28.46
2022-08-18T09:22:10.233Z,28.19
2022-08-18T09:23:24.427Z,28.25
2022-08-18T09:24:30.407Z,27.72
2022-08-18T09:25:47.336Z,27.91
2022-08-18T09:26:54.033Z,27.43
2022-08-18T09:28:13.332Z,27.81
2022-08-18T09:29:27.361Z,27.26
2022-08-18T09:30:59.246Z,27.20
2022-08-18T09:32:20.162Z,26.72
2022-08-18T09:33:32.104Z,26.35
2022-08-18T09:34:53.195Z,26.31
2022-08-18T09:36:13.200Z,26.34
2022-08-18T09:37:29.902Z,25.97
2022-08-18T09:38:55.777Z,25.61
2022-08-18T09:41:01.067Z,25.62
2022-08-18T09:42:00.275Z,25.78
2022-08-18T09:43:13.974Z,25.45
2022-08-18T09:44:43.278Z,25.41
2022-08-18T09:45:47.691Z,25.14
2022-08-18T09:47:01.685Z,25.25
2022-08-18T09:48:28.295Z,25.33
2022-08-18T09:49:38.973Z,25.07
2022-08-18T09:50:57.212Z,25.25
2022-08-18T09:52:24.388Z,25.54
2022-08-18T09:54:13.828Z,25.70
2022-08-18T09:55:16.023Z,25.13
2022-08-18T09:56:54.321Z,25.50
2022-08-18T09:58:19.285Z,25.59
2022-08-18T09:59:34.518Z,25.64
2022-08-18T10:00:37.144Z,25.45
2022-08-18T10:01:41.965Z,26.03
2022-08-18T10:02:49.785Z,26.19
2022-08-18T10:04:21.479Z,26.32
2022-08-18T10:05:28.822Z,25.82
2022-08-18T10:06:31.919Z,26.24
2022-08-18T10:11:00.877Z,26.24
2022-08-18T10:12:36.262Z,26.31
2022-08-18T10:13:59.262Z,26.45
2022-08-18T10:15:33.208Z,26.72
2022-08-18T10:17:21.250Z,26.66
2022-08-18T10:18:54.264Z,26.52
2022-08-18T10:20:26.110Z,26.84
2022-08-18T10:21:50.644Z,26.66
2022-08-18T10:24:38.163Z,26.73
2022-08-18T10:25:45.771Z,26.83
2022-08-18T10:28:50.215Z,26.96
2022-08-18T10:29:56.196Z,26.88
2022-08-18T10:31:10.048Z,26.95
2022-08-18T10:32:14.312Z,26.94
2022-08-18T10:33:57.226Z,27.58
2022-08-18T10:34:59.474Z,27.12
2022-08-18T10:36:03.145Z,27.33
2022-08-18T10:37:28.341Z,27.67
2022-08-18T10:38:48.953Z,27.24
2022-08-18T10:39:56.362Z,27.63
2022-08-18T10:42:34.750Z,27.81
2022-08-18T10:43:57.323Z,28.14
2022-08-18T10:45:11.949Z,28.04
2022-08-18T10:46:34.347Z,28.24
2022-08-18T10:47:37.960Z,28.23
2022-08-18T10:48:40.318Z,27.91
2022-08-18T10:49:49.874Z,28.15
2022-08-18T10:51:21.366Z,28.32
2022-08-18T10:52:54.434Z,28.19
2022-08-18T10:54:23.283Z,28.66
2022-08-18T10:55:53.710Z,28.46
2022-08-18T10:57:20.623Z,28.72
2022-08-18T10:58:47.401Z,28.97
2022-08-18T10:59:56.686Z,28.86
2022-08-18T11:01:12.321Z,29.08
2022-08-18T11:02:40.020Z,29.10
2022-08-18T11:03:58.374Z,29.11
2022-08-18T11:05:06.538Z,28.95
2022-08-18T11:07:44.783Z,29.17
2022-08-18T11:08:53.203Z,29.21
2022-08-18T11:13:01.606Z,29.62
2022-08-18T11:16:41.543Z,29.99
2022-08-18T11:17:55.164Z,30.06
2022-08-18T11:19:06.539Z,30.35
2022-08-18T11:20:12.913Z,30.41
2022-08-18T11:21:42.088Z,30.17
2022-08-18T11:22:57.069Z,30.35
2022-08-18T11:24:06.281Z,30.26
2022-08-18T11:25:39.828Z,30.58
2022-08-18T11:28:20.166Z,30.34
2022-08-18T11:29:38.173Z,30.65
2022-08-18T11:30:43.898Z,30.96
2022-08-18T11:31:52.724Z,30.82
2022-08-18T11:32:57.756Z,30.90
2022-08-18T11:34:00.433Z,31.02
2022-08-18T11:35:19.683Z,30.95
2022-08-18T11:36:30.944Z,31.03
2022-08-18T11:37:51.543Z,30.89
2022-08-18T11:38:56.135Z,30.98
2022-08-18T11:40:01.036Z,31.12
2022-08-18T11:41:24.469Z,31.14
2022-08-18T11:42:41.494Z,31.67
2022-08-18T11:43:50.621Z,31.34
2022-08-18T11:45:02.769Z,31.59
2022-08-18T11:46:42.953Z,31.74
2022-08-18T11:48:14.783Z,31.56
2022-08-18T11:49:33.451Z,31.58
2022-08-18T11:51:01.442Z,32.04
2022-08-18T11:52:29.604Z,31.86
2022-08-18T11:53:57.982Z,31.90
2022-08-18T11:55:14.617Z,32.35
2022-08-18T11:56:30.786Z,32.09
2022-08-18T11:57:58.758Z,32.18
2022-08-18T11:59:12.660Z,32.16
2022-08-18T12:00:42.540Z,32.02
2022-08-18T12:01:59.893Z,32.05
2022-08-18T12:03:05.847Z,32.23
2022-08-18T12:04:11.182Z,32.13
2022-08-18T12:05:13.750Z,32.44
2022-08-18T12:06:27.070Z,32.26
2022-08-18T12:07:35.411Z,32.28
2022-08-18T12:08:57.204Z,32.36
2022-08-18T12:10:28.826Z,32.32
2022-08-18T12:11:36.061Z,32.54
2022-08-18T12:12:51.760Z,32.53
2022-08-18T12:14:29.678Z,32.49
2022-08-18T12:15:43.652Z,32.46
2022-08-18T12:16:53.946Z,32.71
2022-08-18T12:17:56.498Z,32.96
2022-08-18T12:19:00.820Z,33.19
2022-08-18T12:20:09.301Z,33.09
2022-08-18T12:21:14.268Z,33.18
2022-08-18T12:22:31.388Z,33.42
2022-08-18T12:25:16.232Z,33.12
2022-08-18T12:26:39.020Z,33.39
2022-08-18T12:27:49.545Z,33.47
2022-08-18T12:28:51.720Z,33.46
2022-08-18T12:29:57.656Z,33.20
2022-08-18T12:31:00.006Z,33.32
2022-08-18T12:32:02.220Z,33.65
2022-08-18T12:33:12.549Z,33.41
2022-08-18T12:34:16.192Z,33.53
2022-08-18T12:35:22.256Z,33.47
2022-08-18T12:36:25.178Z,33.72
2022-08-18T12:37:58.185Z,33.58
2022-08-18T12:38:56.280Z,33.73
2022-08-18T12:40:02.197Z,33.84
2022-08-18T12:41:05.786Z,33.82
2022-08-18T12:42:10.621Z,33.76
2022-08-18T12:43:13.277Z,34.04
2022-08-18T12:44:15.508Z,33.67
2022-08-18T12:45:21.043Z,34.01
2022-08-18T12:46:25.545Z,34.11
2022-08-18T12:47:31.203Z,34.15
2022-08-18T12:48:33.916Z,34.05
2022-08-18T12:49:36.553Z,34.32
2022-08-18T12:50:54.599Z,34.24
2022-08-18T12:51:58.892Z,34.14
2022-08-18T12:53:05.878Z,34.07
2022-08-18T12:54:10.459Z,34.01
2022-08-18T12:55:21.354Z,34.15
2022-08-18T12:56:30.703Z,34.36
2022-08-18T12:57:52.273Z,34.39
2022-08-18T12:58:55.589Z,34.40
2022-08-18T13:00:09.247Z,34.17
2022-08-18T13:01:19.191Z,34.41
2022-08-18T13:02:22.295Z,34.36
2022-08-18T13:03:24.526Z,34.29
2022-08-18T13:04:29.826Z,34.57
2022-08-18T13:05:37.199Z,34.32
2022-08-18T13:06:59.932Z,34.48
2022-08-18T13:08:05.510Z,34.24
2022-08-18T13:09:16.189Z,34.30
2022-08-18T13:10:21.766Z,34.33
2022-08-18T13:11:43.091Z,34.39
2022-08-18T13:12:45.281Z,34.24
2022-08-18T13:13:52.691Z,34.12
2022-08-18T13:14:58.183Z,34.11
2022-08-18T13:16:01.249Z,34.45
2022-08-18T13:17:09.167Z,34.27
2022-08-18T13:18:14.624Z,34.25
2022-08-18T13:19:17.041Z,34.58
2022-08-18T13:20:19.281Z,34.30
2022-08-18T13:21:23.151Z,34.54
2022-08-18T13:22:32.649Z,34.49
2022-08-18T13:23:36.742Z,34.60
2022-08-18T13:24:39.540Z,34.47
2022-08-18T13:25:44.656Z,34.77
2022-08-18T13:26:50.172Z,34.68
2022-08-18T13:29:18.127Z,34.77
2022-08-18T13:30:29.705Z,34.60
2022-08-18T13:31:34.837Z,34.69
2022-08-18T13:32:58.239Z,34.46
2022-08-18T13:34:03.805Z,34.77
2022-08-18T13:35:09.041Z,34.16
2022-08-18T13:36:15.994Z,34.68
2022-08-18T13:37:18.839Z,34.09
2022-08-18T13:38:27.779Z,34.29
2022-08-18T13:39:33.927Z,34.26
2022-08-18T13:40:38.126Z,34.31
2022-08-18T13:41:53.707Z,34.39
2022-08-18T13:42:57.108Z,34.58
2022-08-18T13:44:01.647Z,34.63
2022-08-18T13:45:22.762Z,34.50
2022-08-18T13:46:30.898Z,34.46
2022-08-18T13:47:38.297Z,34.47
2022-08-18T13:48:44.200Z,34.54
2022-08-18T13:49:58.130Z,34.25
2022-08-18T13:51:03.817Z,34.43
2022-08-18T13:52:12.129Z,34.25
2022-08-18T13:53:31.588Z,34.29
2022-08-18T13:54:35.527Z,34.24
2022-08-18T13:55:37.852Z,34.16
2022-08-18T13:56:40.054Z,34.21
2022-08-18T13:57:49.646Z,34.25
2022-08-18T13:58:53.313Z,34.32
2022-08-18T13:59:59.166Z,34.39
2022-08-18T14:01:29.838Z,34.09
2022-08-18T14:02:32.954Z,34.47
2022-08-18T14:03:47.027Z,34.58
2022-08-18T14:04:51.863Z,34.57
2022-08-18T14:06:01.781Z,34.53
2022-08-18T14:07:18.690Z,34.48
2022-08-18T14:08:21.251Z,34.56
2022-08-18T14:09:27.722Z,34.43
2022-08-18T14:10:38.639Z,34.63
2022-08-18T14:11:44.410Z,34.37
2022-08-18T14:13:00.475Z,34.43
2022-08-18T14:14:20.856Z,34.52
2022-08-18T14:15:23.957Z,34.73
2022-08-18T14:16:29.452Z,34.73
2022-08-18T14:17:33.842Z,34.46
2022-08-18T14:18:40.092Z,34.54
2022-08-18T14:20:10.609Z,34.76
2022-08-18T14:21:36.403Z,34.56
2022-08-18T14:23:00.691Z,34.83
2022-08-18T14:24:22.621Z,34.44
2022-08-18T14:25:46.260Z,34.61
2022-08-18T14:26:49.942Z,34.81
2022-08-18T14:27:56.474Z,34.44
2022-08-18T14:28:59.675Z,34.80
2022-08-18T14:30:06.851Z,34.69
2022-08-18T14:31:11.884Z,34.60
2022-08-18T14:32:21.965Z,34.65
2022-08-18T14:33:51.315Z,34.72
2022-08-18T14:34:59.956Z,34.80
2022-08-18T14:36:09.739Z,34.65
2022-08-18T14:37:12.243Z,34.87
2022-08-18T14:38:19.886Z,34.86
2022-08-18T14:39:22.103Z,35.04
2022-08-18T14:40:26.224Z,34.88
2022-08-18T14:41:29.918Z,35.10
2022-08-18T14:42:41.745Z,35.11
2022-08-18T14:44:12.902Z,34.90
2022-08-18T14:45:31.428Z,35.31
2022-08-18T14:46:37.895Z,35.14
2022-08-18T14:47:43.419Z,35.39
2022-08-18T14:48:45.587Z,35.40
2022-08-18T14:49:49.945Z,35.31
2022-08-18T14:50:55.596Z,35.16
2022-08-18T14:52:01.394Z,35.32
2022-08-18T14:53:03.947Z,35.45
2022-08-18T14:54:06.948Z,35.66
2022-08-18T14:55:11.859Z,35.44
2022-08-18T14:56:16.627Z,35.72
2022-08-18T14:58:41.609Z,35.35
2022-08-18T14:59:44.656Z,35.62
2022-08-18T15:00:53.743Z,35.62
2022-08-18T15:01:59.080Z,35.27
2022-08-18T15:03:01.401Z,35.65
2022-08-18T15:04:19.407Z,35.60
2022-08-18T15:05:24.529Z,35.60
2022-08-18T15:06:27.496Z,35.81
2022-08-18T15:07:32.974Z,35.88
2022-08-18T15:08:37.427Z,35.89
2022-08-18T15:09:39.892Z,36.04
2022-08-18T15:10:43.133Z,36.03
2022-08-18T15:11:45.414Z,35.71
2022-08-18T15:12:47.738Z,35.92
2022-08-18T15:13:51.719Z,35.85
2022-08-18T15:14:59.590Z,36.17
2022-08-18T15:16:05.042Z,36.03
2022-08-18T15:17:11.885Z,35.89
2022-08-18T15:18:15.607Z,36.15
2022-08-18T15:19:59.150Z,35.93
2022-08-18T15:21:10.322Z,36.07
2022-08-18T15:22:40.532Z,36.09
2022-08-18T15:24:01.323Z,36.28
2022-08-18T15:25:26.902Z,36.46
2022-08-18T15:26:31.109Z,36.31
2022-08-18T15:27:42.395Z,36.10
2022-08-18T15:28:45.334Z,36.56
2022-08-18T15:29:50.938Z,36.35
2022-08-18T15:32:17.612Z,36.40
2022-08-18T15:33:23.754Z,36.24
2022-08-18T15:34:46.834Z,36.22
2022-08-18T15:35:53.670Z,36.61
2022-08-18T15:36:57.186Z,36.50
2022-08-18T15:38:14.429Z,36.44
2022-08-18T15:39:20.806Z,36.14